Time;durP1;ratioP1;P1;durP2;ratioP2;P2;SDS_P1;SDS_P2;PMS_P1;PMS_P2;Temp;Humidity;BMP_temperature;BMP_pressure;BME280_temperature;BME280_humidity;BME280_pressure;Samples;Min_cycle;Max_cycle;Signal;HPM_P1;HPM_P2
2021/11/16 00:02:33;;;;;;;37.7;27.9;;;;;;;6.2;77.0;102300;;;;
2021/11/16 00:04:33;;;;;;;37.7;27.9;;;;;;;6.4;76.7;102300;;;;
2021/11/16 00:06:33;;;;;;;37.7;27.9;;;;;;;6.3;75.8;102300;;;;
2021/11/16 00:08:33;;;;;;;37.7;27.9;;;;;;;6.2;76.2;102300;;;;
2021/11/16 00:10:33;;;;;;;37.7;27.9;;;;;;;6.3;76.3;102290;;;;
2021/11/16 00:18:33;;;;;;;37.8;28.7;;;;;;;6.2;77.1;102290;;;;
2021/11/16 00:22:33;;;;;;;37.8;28.7;;;;;;;6.3;76.6;102290;;;;
2021/11/16 00:34:33;;;;;;;39.0;28.3;;;;;;;6.4;76.7;102280;;;;
2021/11/16 00:36:33;;;;;;;39.0;28.3;;;;;;;6.3;76.2;102280;;;;
2021/11/16 00:46:33;;;;;;;39.0;28.3;;;;;;;6.2;76.3;102270;;;;
2021/11/16 00:48:33;;;;;;;39.0;28.3;;;;;;;6.1;76.6;102260;;;;
2021/11/16 00:50:33;;;;;;;39.0;28.3;;;;;;;6.2;76.4;102260;;;;
2021/11/16 00:52:33;;;;;;;39.0;28.3;;;;;;;6.1;76.7;102270;;;;
2021/11/16 00:54:33;;;;;;;38.6;29.9;;;;;;;6.3;76.9;102260;;;;
2021/11/16 00:56:33;;;;;;;38.6;29.9;;;;;;;6.2;76.4;102260;;;;
2021/11/16 00:58:33;;;;;;;38.6;29.9;;;;;;;6.3;76.5;102260;;;;
2021/11/16 01:00:33;;;;;;;38.6;29.9;;;;;;;6.4;76.2;102260;;;;
2021/11/16 01:02:33;;;;;;;38.6;29.9;;;;;;;6.2;76.3;102260;;;;
2021/11/16 01:12:33;;;;;;;38.6;29.9;;;;;;;6.3;76.9;102250;;;;
2021/11/16 01:18:33;;;;;;;41.4;30.4;;;;;;;6.2;76.4;102240;;;;
2021/11/16 01:20:33;;;;;;;41.4;30.4;;;;;;;6.1;76.6;102240;;;;
2021/11/16 01:24:33;;;;;;;41.4;30.4;;;;;;;6.0;77.0;102240;;;;
2021/11/16 01:26:33;;;;;;;41.4;30.4;;;;;;;6.1;77.0;102240;;;;
2021/11/16 01:28:33;;;;;;;41.4;30.4;;;;;;;5.9;77.0;102240;;;;
2021/11/16 01:30:33;;;;;;;41.4;30.4;;;;;;;6.0;77.5;102240;;;;
2021/11/16 01:34:33;;;;;;;39.1;29.3;;;;;;;6.1;76.7;102230;;;;
2021/11/16 01:36:33;;;;;;;39.1;29.3;;;;;;;6.2;76.7;102230;;;;
2021/11/16 01:44:33;;;;;;;39.1;29.3;;;;;;;6.1;76.7;102230;;;;
2021/11/16 01:46:33;;;;;;;39.1;29.3;;;;;;;6.2;77.3;102230;;;;
2021/11/16 01:48:34;;;;;;;39.1;29.3;;;;;;;6.0;76.9;102220;;;;
2021/11/16 01:50:33;;;;;;;39.1;29.3;;;;;;;6.1;76.5;102220;;;;
2021/11/16 01:58:33;;;;;;;43.7;31.7;;;;;;;6.2;77.1;102220;;;;
2021/11/16 02:04:33;;;;;;;43.7;31.7;;;;;;;6.3;76.9;102210;;;;
2021/11/16 02:06:33;;;;;;;43.7;31.7;;;;;;;6.2;76.5;102210;;;;
2021/11/16 02:12:33;;;;;;;43.7;31.7;;;;;;;6.3;77.3;102210;;;;
2021/11/16 02:16:35;;;;;;;41.6;30.6;;;;;;;6.4;77.1;102210;;;;
2021/11/16 02:18:33;;;;;;;41.6;30.6;;;;;;;6.2;76.9;102210;;;;
2021/11/16 02:20:33;;;;;;;41.6;30.6;;;;;;;6.3;77.2;102210;;;;
2021/11/16 02:22:33;;;;;;;41.6;30.6;;;;;;;6.4;76.9;102210;;;;
2021/11/16 02:24:33;;;;;;;41.6;30.6;;;;;;;6.3;77.0;102210;;;;
2021/11/16 02:26:33;;;;;;;41.6;30.6;;;;;;;6.4;76.7;102220;;;;
2021/11/16 02:30:34;;;;;;;41.6;30.6;;;;;;;6.2;76.6;102220;;;;
2021/11/16 02:32:33;;;;;;;41.6;30.6;;;;;;;6.1;76.8;102210;;;;
2021/11/16 02:36:33;;;;;;;44.4;32.3;;;;;;;6.2;76.6;102210;;;;
2021/11/16 02:38:33;;;;;;;44.4;32.3;;;;;;;6.0;76.6;102210;;;;
2021/11/16 02:40:33;;;;;;;44.4;32.3;;;;;;;6.1;77.2;102210;;;;
2021/11/16 02:42:33;;;;;;;44.4;32.3;;;;;;;6.2;77.4;102210;;;;
2021/11/16 02:46:33;;;;;;;44.4;32.3;;;;;;;6.3;76.8;102200;;;;
2021/11/16 02:54:33;;;;;;;41.6;31.4;;;;;;;6.4;76.9;102210;;;;
2021/11/16 02:56:34;;;;;;;41.6;31.4;;;;;;;6.3;77.1;102210;;;;
2021/11/16 03:02:33;;;;;;;41.6;31.4;;;;;;;6.4;77.0;102210;;;;
2021/11/16 03:06:33;;;;;;;41.6;31.4;;;;;;;6.3;77.0;102200;;;;
2021/11/16 03:12:33;;;;;;;41.6;31.4;;;;;;;6.2;76.9;102190;;;;
2021/11/16 03:16:33;;;;;;;42.2;31.7;;;;;;;6.3;77.0;102200;;;;
2021/11/16 03:26:33;;;;;;;42.2;31.7;;;;;;;6.2;76.9;102190;;;;
2021/11/16 03:28:33;;;;;;;42.2;31.7;;;;;;;6.3;76.7;102190;;;;
2021/11/16 03:30:34;;;;;;;42.2;31.7;;;;;;;6.2;76.5;102180;;;;
2021/11/16 03:34:33;;;;;;;44.9;33.1;;;;;;;6.3;76.8;102180;;;;
2021/11/16 03:36:33;;;;;;;44.9;33.1;;;;;;;6.2;77.0;102180;;;;
2021/11/16 03:38:33;;;;;;;44.9;33.1;;;;;;;6.3;76.8;102190;;;;
2021/11/16 03:48:33;;;;;;;44.9;33.1;;;;;;;6.2;77.2;102180;;;;
2021/11/16 03:50:33;;;;;;;44.9;33.1;;;;;;;6.3;77.2;102190;;;;
2021/11/16 03:54:33;;;;;;;43.1;32.2;;;;;;;6.4;76.8;102180;;;;
2021/11/16 03:56:33;;;;;;;43.1;32.2;;;;;;;6.3;76.6;102190;;;;
2021/11/16 04:02:33;;;;;;;43.1;32.2;;;;;;;6.4;77.0;102190;;;;
2021/11/16 04:12:33;;;;;;;43.1;32.2;;;;;;;6.3;77.4;102190;;;;
2021/11/16 04:14:33;;;;;;;48.9;34.5;;;;;;;6.4;77.3;102190;;;;
2021/11/16 04:24:33;;;;;;;48.9;34.5;;;;;;;6.5;77.0;102190;;;;
2021/11/16 04:40:35;;;;;;;47.4;33.9;;;;;;;6.4;76.6;102190;;;;
2021/11/16 04:42:33;;;;;;;47.4;33.9;;;;;;;6.5;76.8;102180;;;;
2021/11/16 04:46:33;;;;;;;47.4;33.9;;;;;;;6.4;76.7;102180;;;;
2021/11/16 04:52:45;;;;;;;47.4;33.9;;;;;;;6.5;77.0;102180;;;;
2021/11/16 05:02:36;;;;;;;48.4;33.7;;;;;;;6.5;77.2;102180;;;;
2021/11/16 05:08:33;;;;;;;48.4;33.7;;;;;;;6.4;77.0;102180;;;;
2021/11/16 05:10:33;;;;;;;48.4;33.7;;;;;;;6.3;77.2;102180;;;;
2021/11/16 05:14:33;;;;;;;47.2;33.8;;;;;;;6.4;77.2;102190;;;;
2021/11/16 05:28:33;;;;;;;47.2;33.8;;;;;;;6.3;77.1;102190;;;;
2021/11/16 05:32:33;;;;;;;48.8;33.8;;;;;;;6.4;77.0;102190;;;;
2021/11/16 05:42:33;;;;;;;48.8;33.8;;;;;;;6.5;77.2;102200;;;;
2021/11/16 05:44:33;;;;;;;48.8;33.8;;;;;;;6.4;76.8;102200;;;;
2021/11/16 05:48:33;;;;;;;48.8;33.8;;;;;;;6.3;77.1;102190;;;;
2021/11/16 05:50:36;;;;;;;48.8;33.8;;;;;;;6.2;77.3;102200;;;;
2021/11/16 06:00:33;;;;;;;44.9;32.8;;;;;;;6.3;77.5;102190;;;;
2021/11/16 06:06:33;;;;;;;44.9;32.8;;;;;;;6.4;77.2;102190;;;;
2021/11/16 06:08:33;;;;;;;44.9;32.8;;;;;;;6.3;77.3;102190;;;;
2021/11/16 06:12:33;;;;;;;47.0;32.5;;;;;;;6.4;77.4;102180;;;;
2021/11/16 06:16:33;;;;;;;47.0;32.5;;;;;;;6.5;76.9;102180;;;;
2021/11/16 06:18:33;;;;;;;47.0;32.5;;;;;;;6.4;77.2;102180;;;;
2021/11/16 06:24:33;;;;;;;47.0;32.5;;;;;;;6.3;77.0;102190;;;;
2021/11/16 06:30:33;;;;;;;47.0;32.5;;;;;;;6.2;77.3;102190;;;;
2021/11/16 06:32:33;;;;;;;46.3;32.8;;;;;;;6.3;77.6;102180;;;;
2021/11/16 06:38:33;;;;;;;46.3;32.8;;;;;;;6.2;77.0;102190;;;;
2021/11/16 06:40:33;;;;;;;46.3;32.8;;;;;;;6.1;77.6;102190;;;;
2021/11/16 06:42:33;;;;;;;46.3;32.8;;;;;;;6.2;77.3;102190;;;;
2021/11/16 06:46:33;;;;;;;46.3;32.8;;;;;;;6.3;77.4;102190;;;;
2021/11/16 07:00:33;;;;;;;48.3;34.0;;;;;;;6.2;76.9;102190;;;;
2021/11/16 07:02:33;;;;;;;48.3;34.0;;;;;;;6.3;77.1;102190;;;;
2021/11/16 07:20:33;;;;;;;52.4;33.8;;;;;;;6.4;77.6;102180;;;;
2021/11/16 07:22:33;;;;;;;52.4;33.8;;;;;;;6.3;77.5;102180;;;;
2021/11/16 07:24:37;;;;;;;52.4;33.8;;;;;;;6.4;77.5;102180;;;;
2021/11/16 07:28:33;;;;;;;52.4;33.8;;;;;;;6.3;77.4;102180;;;;
2021/11/16 07:30:35;;;;;;;52.4;33.8;;;;;;;6.2;77.8;102190;;;;
2021/11/16 07:34:33;;;;;;;47.3;32.1;;;;;;;6.3;77.9;102190;;;;
2021/11/16 07:38:33;;;;;;;47.3;32.1;;;;;;;6.2;77.6;102190;;;;
2021/11/16 07:42:33;;;;;;;47.3;32.1;;;;;;;6.3;77.7;102190;;;;
2021/11/16 07:58:35;;;;;;;48.9;31.9;;;;;;;6.4;77.7;102200;;;;
2021/11/16 08:00:34;;;;;;;48.9;31.9;;;;;;;6.3;78.0;102200;;;;
2021/11/16 08:02:35;;;;;;;48.9;31.9;;;;;;;6.4;77.9;102190;;;;
2021/11/16 08:06:36;;;;;;;48.9;31.9;;;;;;;6.4;77.6;102190;;;;
2021/11/16 08:16:34;;;;;;;47.8;31.4;;;;;;;6.2;77.8;102190;;;;
2021/11/16 08:20:34;;;;;;;47.8;31.4;;;;;;;6.3;77.7;102190;;;;
2021/11/16 08:24:33;;;;;;;47.8;31.4;;;;;;;6.2;77.1;102190;;;;
2021/11/16 08:26:33;;;;;;;47.8;31.4;;;;;;;6.3;77.4;102180;;;;
2021/11/16 08:32:35;;;;;;;50.7;31.7;;;;;;;6.4;77.6;102180;;;;
2021/11/16 08:34:33;;;;;;;50.7;31.7;;;;;;;6.3;77.4;102180;;;;
2021/11/16 08:52:33;;;;;;;49.2;31.1;;;;;;;6.4;77.8;102180;;;;
2021/11/16 08:54:35;;;;;;;49.2;31.1;;;;;;;6.3;77.8;102180;;;;
2021/11/16 08:56:43;;;;;;;49.2;31.1;;;;;;;6.4;77.7;102180;;;;
2021/11/16 08:58:33;;;;;;;49.2;31.1;;;;;;;6.3;77.6;102170;;;;
2021/11/16 09:08:33;;;;;;;49.2;31.1;;;;;;;6.4;77.8;102170;;;;
2021/11/16 09:16:33;;;;;;;46.5;30.3;;;;;;;6.5;77.6;102160;;;;
2021/11/16 09:18:36;;;;;;;46.5;30.3;;;;;;;6.4;77.5;102160;;;;
2021/11/16 09:24:33;;;;;;;46.5;30.3;;;;;;;6.5;77.8;102160;;;;
2021/11/16 09:30:33;;;;;;;46.5;30.3;;;;;;;6.4;78.0;102160;;;;
2021/11/16 09:34:33;;;;;;;49.8;31.3;;;;;;;6.5;78.0;102150;;;;
2021/11/16 09:36:34;;;;;;;49.8;31.3;;;;;;;6.4;78.0;102150;;;;
2021/11/16 09:38:34;;;;;;;49.8;31.3;;;;;;;6.5;77.9;102150;;;;
2021/11/16 10:00:33;;;;;;;46.5;31.2;;;;;;;6.6;77.5;102150;;;;
2021/11/16 10:02:33;;;;;;;46.5;31.2;;;;;;;6.5;77.8;102140;;;;
2021/11/16 10:08:33;;;;;;;46.5;31.2;;;;;;;6.6;77.6;102140;;;;
2021/11/16 10:12:33;;;;;;;41.5;27.1;;;;;;;6.5;77.7;102140;;;;
2021/11/16 10:26:33;;;;;;;41.5;27.1;;;;;;;6.6;77.1;102130;;;;
2021/11/16 10:28:33;;;;;;;41.5;27.1;;;;;;;6.5;77.2;102120;;;;
2021/11/16 10:30:33;;;;;;;41.5;27.1;;;;;;;6.4;77.4;102130;;;;
2021/11/16 10:32:33;;;;;;;42.8;26.8;;;;;;;6.5;77.4;102120;;;;
2021/11/16 10:34:33;;;;;;;42.8;26.8;;;;;;;6.6;77.1;102120;;;;
2021/11/16 10:36:33;;;;;;;42.8;26.8;;;;;;;6.5;77.1;102120;;;;
2021/11/16 10:44:37;;;;;;;42.8;26.8;;;;;;;6.4;77.7;102110;;;;
2021/11/16 10:48:33;;;;;;;42.8;26.8;;;;;;;6.5;77.8;102110;;;;
2021/11/16 11:00:33;;;;;;;44.3;28.9;;;;;;;6.6;77.5;102090;;;;
2021/11/16 11:02:33;;;;;;;44.3;28.9;;;;;;;6.5;77.6;102090;;;;
2021/11/16 11:04:33;;;;;;;44.3;28.9;;;;;;;6.6;77.8;102090;;;;
2021/11/16 11:06:33;;;;;;;44.3;28.9;;;;;;;6.5;77.6;102090;;;;
2021/11/16 11:08:33;;;;;;;44.3;28.9;;;;;;;6.6;77.3;102090;;;;
2021/11/16 11:10:33;;;;;;;44.3;28.9;;;;;;;6.4;77.5;102090;;;;
2021/11/16 11:14:33;;;;;;;41.2;28.5;;;;;;;6.5;77.4;102090;;;;
2021/11/16 11:28:33;;;;;;;41.2;28.5;;;;;;;6.6;77.3;102070;;;;
2021/11/16 11:32:33;;;;;;;39.4;25.5;;;;;;;6.5;77.2;102080;;;;
2021/11/16 11:34:33;;;;;;;39.4;25.5;;;;;;;6.6;77.4;102070;;;;
2021/11/16 11:38:33;;;;;;;39.4;25.5;;;;;;;6.5;77.5;102070;;;;
2021/11/16 11:46:33;;;;;;;39.4;25.5;;;;;;;6.4;77.4;102060;;;;
2021/11/16 11:50:34;;;;;;;39.4;25.5;;;;;;;6.5;77.6;102060;;;;
2021/11/16 11:52:34;;;;;;;38.8;25.1;;;;;;;6.4;77.8;102060;;;;
2021/11/16 11:54:33;;;;;;;38.8;25.1;;;;;;;6.5;77.5;102060;;;;
2021/11/16 12:08:33;;;;;;;38.8;25.1;;;;;;;6.6;77.7;102050;;;;
2021/11/16 12:10:33;;;;;;;38.8;25.1;;;;;;;6.5;77.7;102050;;;;
2021/11/16 12:12:33;;;;;;;40.2;25.9;;;;;;;6.6;77.7;102040;;;;
2021/11/16 12:14:33;;;;;;;40.2;25.9;;;;;;;6.5;77.2;102040;;;;
2021/11/16 12:48:33;;;;;;;39.8;26.3;;;;;;;6.4;77.6;102020;;;;
2021/11/16 12:50:33;;;;;;;39.8;26.3;;;;;;;6.3;77.8;102020;;;;
2021/11/16 12:54:34;;;;;;;40.1;26.0;;;;;;;6.4;77.5;102010;;;;
2021/11/16 13:04:33;;;;;;;40.1;26.0;;;;;;;6.5;77.4;102000;;;;
2021/11/16 13:08:33;;;;;;;40.1;26.0;;;;;;;6.3;77.4;101990;;;;
2021/11/16 13:10:33;;;;;;;40.1;26.0;;;;;;;6.4;77.6;101990;;;;
2021/11/16 13:12:33;;;;;;;38.3;25.4;;;;;;;6.5;77.4;101990;;;;
2021/11/16 13:14:33;;;;;;;38.3;25.4;;;;;;;6.4;77.4;101990;;;;
2021/11/16 13:20:33;;;;;;;38.3;25.4;;;;;;;6.3;77.9;101990;;;;
2021/11/16 13:32:33;;;;;;;44.4;26.2;;;;;;;6.3;77.8;101970;;;;
2021/11/16 13:36:34;;;;;;;44.4;26.2;;;;;;;6.4;77.7;101970;;;;
2021/11/16 13:42:33;;;;;;;44.4;26.2;;;;;;;6.3;77.6;101970;;;;
2021/11/16 13:46:33;;;;;;;44.4;26.2;;;;;;;6.4;77.7;101960;;;;
2021/11/16 13:48:33;;;;;;;44.4;26.2;;;;;;;6.3;77.8;101960;;;;
2021/11/16 13:54:33;;;;;;;35.1;22.6;;;;;;;6.4;77.7;101950;;;;
2021/11/16 13:56:33;;;;;;;35.1;22.6;;;;;;;6.3;77.5;101950;;;;
2021/11/16 14:04:33;;;;;;;35.1;22.6;;;;;;;6.2;77.8;101950;;;;
2021/11/16 14:08:33;;;;;;;35.1;22.6;;;;;;;6.3;77.9;101950;;;;
2021/11/16 14:34:33;;;;;;;38.9;24.2;;;;;;;6.2;77.8;101950;;;;
2021/11/16 14:36:33;;;;;;;38.9;24.2;;;;;;;6.3;78.1;101950;;;;
2021/11/16 14:40:33;;;;;;;38.9;24.2;;;;;;;6.4;77.7;101950;;;;
2021/11/16 14:50:35;;;;;;;40.9;24.9;;;;;;;6.3;77.6;101940;;;;
2021/11/16 15:02:33;;;;;;;40.9;24.9;;;;;;;6.2;78.1;101940;;;;
2021/11/16 15:04:33;;;;;;;40.9;24.9;;;;;;;6.3;78.3;101940;;;;
2021/11/16 15:18:33;;;;;;;43.9;27.5;;;;;;;6.2;77.9;101930;;;;
2021/11/16 15:38:36;;;;;;;42.5;26.3;;;;;;;6.1;78.3;101940;;;;
2021/11/16 15:50:48;;;;;;;38.9;24.8;;;;;;;6.0;78.7;101940;;;;
2021/11/16 15:58:34;;;;;;;38.9;24.8;;;;;;;5.9;78.6;101930;;;;
2021/11/16 16:00:34;;;;;;;38.9;24.8;;;;;;;6.0;78.8;101930;;;;
2021/11/16 16:04:33;;;;;;;38.9;24.8;;;;;;;5.9;78.9;101940;;;;
2021/11/16 16:08:33;;;;;;;38.9;24.8;;;;;;;5.8;79.5;101940;;;;
2021/11/16 16:10:34;;;;;;;39.8;24.5;;;;;;;5.9;79.5;101930;;;;
2021/11/16 16:12:34;;;;;;;39.8;24.5;;;;;;;6.0;79.4;101940;;;;
2021/11/16 16:16:33;;;;;;;39.8;24.5;;;;;;;5.9;79.3;101940;;;;
2021/11/16 16:20:33;;;;;;;39.8;24.5;;;;;;;5.8;79.7;101930;;;;
2021/11/16 16:26:33;;;;;;;39.8;24.5;;;;;;;5.9;79.6;101930;;;;
2021/11/16 16:30:33;;;;;;;41.4;24.7;;;;;;;6.0;79.2;101920;;;;
2021/11/16 16:32:33;;;;;;;41.4;24.7;;;;;;;5.9;79.5;101920;;;;
2021/11/16 16:36:33;;;;;;;41.4;24.7;;;;;;;5.8;79.2;101930;;;;
2021/11/16 16:38:33;;;;;;;41.4;24.7;;;;;;;5.9;79.1;101930;;;;
2021/11/16 16:42:33;;;;;;;41.4;24.7;;;;;;;5.8;78.9;101930;;;;
2021/11/16 16:50:33;;;;;;;40.2;24.3;;;;;;;5.9;78.6;101920;;;;
2021/11/16 16:58:34;;;;;;;40.2;24.3;;;;;;;5.8;78.9;101920;;;;
2021/11/16 17:04:37;;;;;;;40.2;24.3;;;;;;;5.9;78.5;101920;;;;
2021/11/16 17:06:34;;;;;;;40.2;24.3;;;;;;;5.8;78.3;101920;;;;
2021/11/16 17:14:33;;;;;;;42.2;25.9;;;;;;;5.7;78.7;101930;;;;
2021/11/16 17:16:33;;;;;;;42.2;25.9;;;;;;;5.8;78.4;101930;;;;
2021/11/16 17:22:33;;;;;;;42.2;25.9;;;;;;;5.7;78.8;101920;;;;
2021/11/16 17:26:33;;;;;;;42.2;25.9;;;;;;;5.6;79.2;101920;;;;
2021/11/16 17:30:33;;;;;;;42.7;26.2;;;;;;;5.7;78.9;101920;;;;
2021/11/16 17:32:33;;;;;;;42.7;26.2;;;;;;;5.6;78.9;101920;;;;
2021/11/16 17:34:33;;;;;;;42.7;26.2;;;;;;;5.7;78.8;101920;;;;
2021/11/16 17:36:33;;;;;;;42.7;26.2;;;;;;;5.8;78.6;101930;;;;
2021/11/16 17:38:33;;;;;;;42.7;26.2;;;;;;;5.7;78.5;101930;;;;
2021/11/16 17:40:33;;;;;;;42.7;26.2;;;;;;;5.8;78.5;101930;;;;
2021/11/16 17:42:33;;;;;;;42.7;26.2;;;;;;;5.7;78.5;101930;;;;
2021/11/16 17:50:36;;;;;;;43.8;26.4;;;;;;;5.8;78.4;101930;;;;
2021/11/16 18:00:33;;;;;;;43.8;26.4;;;;;;;5.7;78.8;101940;;;;
2021/11/16 18:04:38;;;;;;;43.8;26.4;;;;;;;5.8;79.1;101930;;;;
2021/11/16 18:10:33;;;;;;;43.6;27.1;;;;;;;5.9;78.8;101930;;;;
2021/11/16 18:18:35;;;;;;;43.6;27.1;;;;;;;5.8;78.4;101920;;;;
2021/11/16 18:24:34;;;;;;;43.6;27.1;;;;;;;5.9;78.5;101930;;;;
2021/11/16 18:38:37;;;;;;;43.0;25.5;;;;;;;6.0;77.8;101910;;;;
2021/11/16 18:40:38;;;;;;;43.0;25.5;;;;;;;5.8;78.2;101910;;;;
2021/11/16 18:42:40;;;;;;;43.0;25.5;;;;;;;5.9;78.3;101910;;;;
2021/11/16 18:50:33;;;;;;;41.6;24.5;;;;;;;6.0;78.2;101910;;;;
2021/11/16 18:52:34;;;;;;;41.6;24.5;;;;;;;5.9;78.2;101920;;;;
2021/11/16 19:02:33;;;;;;;41.6;24.5;;;;;;;6.0;78.6;101900;;;;
2021/11/16 19:04:33;;;;;;;41.6;24.5;;;;;;;5.9;78.6;101900;;;;
2021/11/16 19:06:33;;;;;;;41.6;24.5;;;;;;;5.8;78.6;101900;;;;
2021/11/16 19:10:33;;;;;;;44.3;25.5;;;;;;;5.9;78.3;101890;;;;
2021/11/16 19:14:33;;;;;;;44.3;25.5;;;;;;;5.8;78.7;101890;;;;
2021/11/16 19:24:34;;;;;;;44.3;25.5;;;;;;;5.9;78.8;101890;;;;
2021/11/16 19:28:38;;;;;;;44.3;25.5;;;;;;;5.8;79.0;101890;;;;
2021/11/16 19:38:40;;;;;;;53.2;29.9;;;;;;;5.9;79.0;101870;;;;
2021/11/16 19:42:33;;;;;;;53.2;29.9;;;;;;;6.0;78.9;101870;;;;
2021/11/16 19:44:34;;;;;;;53.2;29.9;;;;;;;5.9;79.3;101870;;;;
2021/11/16 19:56:33;;;;;;;57.5;33.0;;;;;;;5.8;79.6;101860;;;;
2021/11/16 20:00:33;;;;;;;57.5;33.0;;;;;;;5.9;79.2;101870;;;;
2021/11/16 20:02:33;;;;;;;57.5;33.0;;;;;;;5.8;79.7;101870;;;;
2021/11/16 20:06:33;;;;;;;57.5;33.0;;;;;;;5.9;79.6;101870;;;;
2021/11/16 20:08:33;;;;;;;57.5;33.0;;;;;;;5.8;79.5;101860;;;;
2021/11/16 20:10:34;;;;;;;63.6;33.0;;;;;;;5.9;79.4;101870;;;;
2021/11/16 20:12:33;;;;;;;63.6;33.0;;;;;;;5.8;79.6;101870;;;;
2021/11/16 20:14:33;;;;;;;63.6;33.0;;;;;;;5.9;79.5;101870;;;;
2021/11/16 20:18:33;;;;;;;63.6;33.0;;;;;;;5.8;79.6;101880;;;;
2021/11/16 20:22:33;;;;;;;63.6;33.0;;;;;;;5.9;79.6;101870;;;;
2021/11/16 20:26:34;;;;;;;63.6;33.0;;;;;;;5.8;79.5;101870;;;;
2021/11/16 20:28:38;;;;;;;63.6;33.0;;;;;;;5.9;79.6;101870;;;;
2021/11/16 20:32:39;;;;;;;59.9;32.8;;;;;;;5.8;79.7;101860;;;;
2021/11/16 20:34:42;;;;;;;59.9;32.8;;;;;;;5.9;79.9;101860;;;;
2021/11/16 20:40:38;;;;;;;59.9;32.8;;;;;;;6.0;79.7;101850;;;;
2021/11/16 21:06:36;;;;;;;58.5;32.7;;;;;;;5.9;80.2;101830;;;;
2021/11/16 21:08:33;;;;;;;58.5;32.7;;;;;;;5.8;80.1;101830;;;;
2021/11/16 21:12:33;;;;;;;55.5;31.2;;;;;;;5.7;80.3;101830;;;;
2021/11/16 21:14:34;;;;;;;55.5;31.2;;;;;;;5.8;80.7;101820;;;;
2021/11/16 21:40:34;;;;;;;55.2;31.5;;;;;;;5.9;80.0;101830;;;;
2021/11/16 22:17:14;;;;;;;49.2;29.1;;;;;;;6.0;80.0;101840;;;;
2021/11/16 22:19:12;;;;;;;49.2;29.1;;;;;;;5.9;80.1;101830;;;;
2021/11/16 22:21:12;;;;;;;49.2;29.1;;;;;;;6.0;79.9;101830;;;;
2021/11/16 22:23:12;;;;;;;49.2;29.1;;;;;;;5.9;79.9;101830;;;;
2021/11/16 22:58:54;;;;;;;50.9;28.9;;;;;;;5.8;81.1;101820;;;;
2021/11/16 23:03:33;;;;;;;50.9;28.9;;;;;;;5.8;81.1;101830;;;;
